sensor_id;sensor_type;location;lat;lon;timestamp;temperature;humidity
10581;DHT22;5338;51.500;6.802;2022-07-04T00:01:53;19.20;86.80
10581;DHT22;5338;51.500;6.802;2022-07-04T00:04:20;19.20;95.30
10581;DHT22;5338;51.500;6.802;2022-07-04T00:09:14;19.20;95.70
10581;DHT22;5338;51.500;6.802;2022-07-04T00:11:41;18.70;96.00
10581;DHT22;5338;51.500;6.802;2022-07-04T00:14:08;18.90;91.20
10581;DHT22;5338;51.500;6.802;2022-07-04T00:16:34;18.80;91.70
10581;DHT22;5338;51.500;6.802;2022-07-04T00:19:03;18.80;93.50
10581;DHT22;5338;51.500;6.802;2022-07-04T00:21:30;18.60;98.70
10581;DHT22;5338;51.500;6.802;2022-07-04T00:23:56;18.90;94.10
10581;DHT22;5338;51.500;6.802;2022-07-04T00:26:24;18.70;99.80
10581;DHT22;5338;51.500;6.802;2022-07-04T00:28:51;18.80;99.90
10581;DHT22;5338;51.500;6.802;2022-07-04T00:31:18;18.40;99.90
10581;DHT22;5338;51.500;6.802;2022-07-04T00:33:45;18.80;99.90
10581;DHT22;5338;51.500;6.802;2022-07-04T00:36:13;18.30;99.90
10581;DHT22;5338;51.500;6.802;2022-07-04T00:38:40;18.50;99.90
10581;DHT22;5338;51.500;6.802;2022-07-04T00:41:07;18.30;99.90
10581;DHT22;5338;51.500;6.802;2022-07-04T00:43:34;18.30;99.90
10581;DHT22;5338;51.500;6.802;2022-07-04T00:46:03;18.30;99.90
10581;DHT22;5338;51.500;6.802;2022-07-04T00:48:31;18.50;99.90
10581;DHT22;5338;51.500;6.802;2022-07-04T00:50:59;18.30;99.90
10581;DHT22;5338;51.500;6.802;2022-07-04T00:53:27;18.10;99.90
10581;DHT22;5338;51.500;6.802;2022-07-04T00:58:22;18.00;99.90
10581;DHT22;5338;51.500;6.802;2022-07-04T01:00:50;18.20;99.90
10581;DHT22;5338;51.500;6.802;2022-07-04T01:03:17;17.80;99.90
10581;DHT22;5338;51.500;6.802;2022-07-04T01:05:44;17.70;99.90
10581;DHT22;5338;51.500;6.802;2022-07-04T01:08:11;18.00;99.90
10581;DHT22;5338;51.500;6.802;2022-07-04T01:10:40;17.80;99.90
10581;DHT22;5338;51.500;6.802;2022-07-04T01:13:07;17.70;99.90
10581;DHT22;5338;51.500;6.802;2022-07-04T01:15:34;17.80;99.90
10581;DHT22;5338;51.500;6.802;2022-07-04T01:18:01;17.80;99.90
10581;DHT22;5338;51.500;6.802;2022-07-04T01:20:35;17.50;99.90
10581;DHT22;5338;51.500;6.802;2022-07-04T01:23:03;17.70;99.90
10581;DHT22;5338;51.500;6.802;2022-07-04T01:25:30;17.70;99.90
10581;DHT22;5338;51.500;6.802;2022-07-04T01:27:57;17.50;99.90
10581;DHT22;5338;51.500;6.802;2022-07-04T01:30:24;17.40;99.90
10581;DHT22;5338;51.500;6.802;2022-07-04T01:32:51;17.60;99.90
10581;DHT22;5338;51.500;6.802;2022-07-04T01:35:19;17.60;99.90
10581;DHT22;5338;51.500;6.802;2022-07-04T01:37:47;17.50;99.90
10581;DHT22;5338;51.500;6.802;2022-07-04T01:40:14;17.50;99.90
10581;DHT22;5338;51.500;6.802;2022-07-04T01:42:41;17.50;99.90
10581;DHT22;5338;51.500;6.802;2022-07-04T01:45:10;17.50;99.90
10581;DHT22;5338;51.500;6.802;2022-07-04T01:47:37;17.70;99.90
10581;DHT22;5338;51.500;6.802;2022-07-04T01:50:07;17.70;99.90
10581;DHT22;5338;51.500;6.802;2022-07-04T01:52:35;17.50;99.90
10581;DHT22;5338;51.500;6.802;2022-07-04T01:55:05;17.70;99.90
10581;DHT22;5338;51.500;6.802;2022-07-04T01:57:32;17.50;99.90
10581;DHT22;5338;51.500;6.802;2022-07-04T01:59:59;17.30;99.90
10581;DHT22;5338;51.500;6.802;2022-07-04T02:02:43;17.60;99.90
10581;DHT22;5338;51.500;6.802;2022-07-04T02:05:10;17.40;99.90
10581;DHT22;5338;51.500;6.802;2022-07-04T02:07:36;17.20;99.90
10581;DHT22;5338;51.500;6.802;2022-07-04T02:10:05;16.70;99.90
10581;DHT22;5338;51.500;6.802;2022-07-04T02:12:32;17.20;99.90
10581;DHT22;5338;51.500;6.802;2022-07-04T02:15:17;17.10;99.90
10581;DHT22;5338;51.500;6.802;2022-07-04T02:17:49;17.00;99.90
10581;DHT22;5338;51.500;6.802;2022-07-04T02:20:16;16.80;99.90
10581;DHT22;5338;51.500;6.802;2022-07-04T02:22:43;16.60;99.90
10581;DHT22;5338;51.500;6.802;2022-07-04T02:25:11;17.10;99.90
10581;DHT22;5338;51.500;6.802;2022-07-04T02:27:38;16.70;99.90
10581;DHT22;5338;51.500;6.802;2022-07-04T02:30:07;16.80;99.90
10581;DHT22;5338;51.500;6.802;2022-07-04T02:32:34;17.00;99.90
10581;DHT22;5338;51.500;6.802;2022-07-04T02:35:01;17.00;99.90
10581;DHT22;5338;51.500;6.802;2022-07-04T02:37:28;16.60;99.90
10581;DHT22;5338;51.500;6.802;2022-07-04T02:39:55;16.60;99.90
10581;DHT22;5338;51.500;6.802;2022-07-04T02:42:24;16.80;99.90
10581;DHT22;5338;51.500;6.802;2022-07-04T02:44:50;16.70;99.90
10581;DHT22;5338;51.500;6.802;2022-07-04T02:47:17;16.60;99.90
10581;DHT22;5338;51.500;6.802;2022-07-04T02:49:44;16.60;99.90
10581;DHT22;5338;51.500;6.802;2022-07-04T02:52:11;16.80;99.90
10581;DHT22;5338;51.500;6.802;2022-07-04T02:54:39;16.60;99.90
10581;DHT22;5338;51.500;6.802;2022-07-04T02:57:06;16.60;99.90
10581;DHT22;5338;51.500;6.802;2022-07-04T02:59:34;16.60;99.90
10581;DHT22;5338;51.500;6.802;2022-07-04T03:02:01;16.60;99.90
10581;DHT22;5338;51.500;6.802;2022-07-04T03:04:28;16.50;99.90
10581;DHT22;5338;51.500;6.802;2022-07-04T03:06:55;16.40;99.90
10581;DHT22;5338;51.500;6.802;2022-07-04T03:09:22;16.50;99.90
10581;DHT22;5338;51.500;6.802;2022-07-04T03:11:52;16.20;99.90
10581;DHT22;5338;51.500;6.802;2022-07-04T03:14:19;16.40;99.90
10581;DHT22;5338;51.500;6.802;2022-07-04T03:16:47;16.30;99.90
10581;DHT22;5338;51.500;6.802;2022-07-04T03:19:14;16.40;99.90
10581;DHT22;5338;51.500;6.802;2022-07-04T03:21:43;16.40;99.90
10581;DHT22;5338;51.500;6.802;2022-07-04T03:24:10;16.30;99.90
10581;DHT22;5338;51.500;6.802;2022-07-04T03:26:39;16.30;99.90
10581;DHT22;5338;51.500;6.802;2022-07-04T03:29:06;16.30;99.90
10581;DHT22;5338;51.500;6.802;2022-07-04T03:31:33;16.40;99.90
10581;DHT22;5338;51.500;6.802;2022-07-04T03:34:01;16.50;99.90
10581;DHT22;5338;51.500;6.802;2022-07-04T03:36:28;16.60;99.90
10581;DHT22;5338;51.500;6.802;2022-07-04T03:38:55;16.60;99.90
10581;DHT22;5338;51.500;6.802;2022-07-04T03:41:22;16.70;99.90
10581;DHT22;5338;51.500;6.802;2022-07-04T03:43:49;16.60;99.90
10581;DHT22;5338;51.500;6.802;2022-07-04T03:48:43;16.10;99.90
10581;DHT22;5338;51.500;6.802;2022-07-04T03:51:12;16.70;99.90
10581;DHT22;5338;51.500;6.802;2022-07-04T03:53:39;16.40;99.90
10581;DHT22;5338;51.500;6.802;2022-07-04T03:56:06;14.90;99.90
10581;DHT22;5338;51.500;6.802;2022-07-04T04:01:01;16.40;99.90
10581;DHT22;5338;51.500;6.802;2022-07-04T04:03:28;16.60;99.90
10581;DHT22;5338;51.500;6.802;2022-07-04T04:06:13;16.40;99.90
10581;DHT22;5338;51.500;6.802;2022-07-04T04:08:40;16.40;99.90
10581;DHT22;5338;51.500;6.802;2022-07-04T04:11:07;16.40;99.90
10581;DHT22;5338;51.500;6.802;2022-07-04T04:13:34;16.40;99.90
10581;DHT22;5338;51.500;6.802;2022-07-04T04:16:01;16.40;99.90
10581;DHT22;5338;51.500;6.802;2022-07-04T04:18:28;16.40;99.90
10581;DHT22;5338;51.500;6.802;2022-07-04T04:20:55;16.60;99.90
10581;DHT22;5338;51.500;6.802;2022-07-04T04:23:23;16.40;99.90
10581;DHT22;5338;51.500;6.802;2022-07-04T04:25:50;16.80;99.90
10581;DHT22;5338;51.500;6.802;2022-07-04T04:28:17;16.50;99.90
10581;DHT22;5338;51.500;6.802;2022-07-04T04:30:44;16.50;99.90
10581;DHT22;5338;51.500;6.802;2022-07-04T04:33:10;16.40;99.90
10581;DHT22;5338;51.500;6.802;2022-07-04T04:35:37;16.40;99.90
10581;DHT22;5338;51.500;6.802;2022-07-04T04:38:04;16.50;99.90
10581;DHT22;5338;51.500;6.802;2022-07-04T04:40:32;16.40;99.90
10581;DHT22;5338;51.500;6.802;2022-07-04T04:42:59;16.40;99.90
10581;DHT22;5338;51.500;6.802;2022-07-04T04:45:26;16.10;99.90
10581;DHT22;5338;51.500;6.802;2022-07-04T04:47:53;16.30;99.90
10581;DHT22;5338;51.500;6.802;2022-07-04T04:50:20;16.30;99.90
10581;DHT22;5338;51.500;6.802;2022-07-04T04:52:47;16.40;99.90
10581;DHT22;5338;51.500;6.802;2022-07-04T04:55:15;16.60;99.90
10581;DHT22;5338;51.500;6.802;2022-07-04T04:57:43;16.50;99.90
10581;DHT22;5338;51.500;6.802;2022-07-04T05:00:11;16.60;99.90
10581;DHT22;5338;51.500;6.802;2022-07-04T05:02:38;16.70;99.90
10581;DHT22;5338;51.500;6.802;2022-07-04T05:05:05;16.80;99.90
10581;DHT22;5338;51.500;6.802;2022-07-04T05:07:32;16.80;99.90
10581;DHT22;5338;51.500;6.802;2022-07-04T05:10:12;16.80;99.90
10581;DHT22;5338;51.500;6.802;2022-07-04T05:12:39;16.70;99.90
10581;DHT22;5338;51.500;6.802;2022-07-04T05:15:08;16.90;99.90
10581;DHT22;5338;51.500;6.802;2022-07-04T05:17:35;16.90;99.90
10581;DHT22;5338;51.500;6.802;2022-07-04T05:20:02;17.00;99.90
10581;DHT22;5338;51.500;6.802;2022-07-04T05:22:29;17.00;99.90
10581;DHT22;5338;51.500;6.802;2022-07-04T05:24:55;17.10;99.90
10581;DHT22;5338;51.500;6.802;2022-07-04T05:27:22;16.90;99.90
10581;DHT22;5338;51.500;6.802;2022-07-04T05:29:51;17.20;99.90
10581;DHT22;5338;51.500;6.802;2022-07-04T05:32:20;17.30;99.90
10581;DHT22;5338;51.500;6.802;2022-07-04T05:34:47;17.30;99.90
10581;DHT22;5338;51.500;6.802;2022-07-04T05:37:14;17.40;99.90
10581;DHT22;5338;51.500;6.802;2022-07-04T05:39:41;17.50;99.90
10581;DHT22;5338;51.500;6.802;2022-07-04T05:42:08;17.40;99.90
10581;DHT22;5338;51.500;6.802;2022-07-04T05:44:36;17.50;99.90
10581;DHT22;5338;51.500;6.802;2022-07-04T05:47:03;17.40;99.90
10581;DHT22;5338;51.500;6.802;2022-07-04T05:49:35;17.50;99.90
10581;DHT22;5338;51.500;6.802;2022-07-04T05:52:02;17.50;99.90
10581;DHT22;5338;51.500;6.802;2022-07-04T05:54:29;17.80;99.90
10581;DHT22;5338;51.500;6.802;2022-07-04T05:59:23;18.20;99.90
10581;DHT22;5338;51.500;6.802;2022-07-04T06:01:50;18.50;99.90
10581;DHT22;5338;51.500;6.802;2022-07-04T06:04:17;18.70;99.90
10581;DHT22;5338;51.500;6.802;2022-07-04T06:06:45;18.90;99.90
10581;DHT22;5338;51.500;6.802;2022-07-04T06:09:12;19.10;99.90
10581;DHT22;5338;51.500;6.802;2022-07-04T06:11:39;19.40;99.90
10581;DHT22;5338;51.500;6.802;2022-07-04T06:14:06;19.70;99.90
10581;DHT22;5338;51.500;6.802;2022-07-04T06:16:34;20.10;99.90
10581;DHT22;5338;51.500;6.802;2022-07-04T06:19:01;20.30;99.90
10581;DHT22;5338;51.500;6.802;2022-07-04T06:21:28;20.60;99.90
10581;DHT22;5338;51.500;6.802;2022-07-04T06:23:56;20.80;99.90
10581;DHT22;5338;51.500;6.802;2022-07-04T06:26:24;20.90;99.90
10581;DHT22;5338;51.500;6.802;2022-07-04T06:28:52;20.80;99.90
10581;DHT22;5338;51.500;6.802;2022-07-04T06:31:19;20.70;99.90
10581;DHT22;5338;51.500;6.802;2022-07-04T06:33:46;20.90;99.90
10581;DHT22;5338;51.500;6.802;2022-07-04T06:36:31;21.10;99.90
10581;DHT22;5338;51.500;6.802;2022-07-04T06:39:00;20.90;99.90
10581;DHT22;5338;51.500;6.802;2022-07-04T06:41:27;21.00;99.90
10581;DHT22;5338;51.500;6.802;2022-07-04T06:43:54;20.70;99.90
10581;DHT22;5338;51.500;6.802;2022-07-04T06:46:21;20.70;99.90
10581;DHT22;5338;51.500;6.802;2022-07-04T06:48:50;20.90;99.90
10581;DHT22;5338;51.500;6.802;2022-07-04T06:51:17;21.10;99.90
10581;DHT22;5338;51.500;6.802;2022-07-04T06:53:44;21.30;99.90
10581;DHT22;5338;51.500;6.802;2022-07-04T06:56:12;21.40;99.90
10581;DHT22;5338;51.500;6.802;2022-07-04T06:58:39;21.60;99.90
10581;DHT22;5338;51.500;6.802;2022-07-04T07:01:06;21.80;99.90
10581;DHT22;5338;51.500;6.802;2022-07-04T07:03:33;22.00;97.80
10581;DHT22;5338;51.500;6.802;2022-07-04T07:06:00;22.20;95.60
10581;DHT22;5338;51.500;6.802;2022-07-04T07:08:28;22.10;92.70
10581;DHT22;5338;51.500;6.802;2022-07-04T07:10:55;21.80;92.80
10581;DHT22;5338;51.500;6.802;2022-07-04T07:13:23;22.10;93.90
10581;DHT22;5338;51.500;6.802;2022-07-04T07:15:50;22.50;93.00
10581;DHT22;5338;51.500;6.802;2022-07-04T07:18:17;22.60;89.10
10581;DHT22;5338;51.500;6.802;2022-07-04T07:20:44;22.60;85.50
10581;DHT22;5338;51.500;6.802;2022-07-04T07:25:39;22.50;83.80
10581;DHT22;5338;51.500;6.802;2022-07-04T07:28:06;22.70;86.20
10581;DHT22;5338;51.500;6.802;2022-07-04T07:30:34;22.90;87.00
10581;DHT22;5338;51.500;6.802;2022-07-04T07:33:01;23.20;84.00
10581;DHT22;5338;51.500;6.802;2022-07-04T07:35:28;23.80;89.40
10581;DHT22;5338;51.500;6.802;2022-07-04T07:37:55;23.50;79.70
10581;DHT22;5338;51.500;6.802;2022-07-04T07:40:22;23.70;75.60
10581;DHT22;5338;51.500;6.802;2022-07-04T07:42:48;23.60;75.90
10581;DHT22;5338;51.500;6.802;2022-07-04T07:45:15;24.20;86.30
10581;DHT22;5338;51.500;6.802;2022-07-04T07:47:44;24.10;75.00
10581;DHT22;5338;51.500;6.802;2022-07-04T07:50:10;23.80;71.40
10581;DHT22;5338;51.500;6.802;2022-07-04T07:52:38;23.80;71.50
10581;DHT22;5338;51.500;6.802;2022-07-04T07:55:05;23.90;72.10
10581;DHT22;5338;51.500;6.802;2022-07-04T07:57:33;23.80;69.80
10581;DHT22;5338;51.500;6.802;2022-07-04T08:00:00;23.70;68.40
10581;DHT22;5338;51.500;6.802;2022-07-04T08:02:27;23.80;70.10
10581;DHT22;5338;51.500;6.802;2022-07-04T08:05:10;23.80;70.60
10581;DHT22;5338;51.500;6.802;2022-07-04T08:07:37;24.10;70.70
10581;DHT22;5338;51.500;6.802;2022-07-04T08:10:05;24.10;66.80
10581;DHT22;5338;51.500;6.802;2022-07-04T08:12:32;24.20;68.50
10581;DHT22;5338;51.500;6.802;2022-07-04T08:14:59;24.40;67.60
10581;DHT22;5338;51.500;6.802;2022-07-04T08:17:27;23.90;63.50
10581;DHT22;5338;51.500;6.802;2022-07-04T08:19:54;23.70;65.00
10581;DHT22;5338;51.500;6.802;2022-07-04T08:22:22;23.80;65.80
10581;DHT22;5338;51.500;6.802;2022-07-04T08:24:49;23.70;65.90
10581;DHT22;5338;51.500;6.802;2022-07-04T08:27:16;23.90;65.90
10581;DHT22;5338;51.500;6.802;2022-07-04T08:29:43;24.20;65.50
10581;DHT22;5338;51.500;6.802;2022-07-04T08:32:10;24.40;63.50
10581;DHT22;5338;51.500;6.802;2022-07-04T08:34:38;24.50;63.30
10581;DHT22;5338;51.500;6.802;2022-07-04T08:37:05;24.80;60.10
10581;DHT22;5338;51.500;6.802;2022-07-04T08:39:33;24.80;58.60
10581;DHT22;5338;51.500;6.802;2022-07-04T08:42:03;25.00;57.90
10581;DHT22;5338;51.500;6.802;2022-07-04T08:44:34;24.80;57.50
10581;DHT22;5338;51.500;6.802;2022-07-04T08:47:04;24.50;56.20
10581;DHT22;5338;51.500;6.802;2022-07-04T08:49:34;24.70;57.40
10581;DHT22;5338;51.500;6.802;2022-07-04T08:52:03;24.80;57.40
10581;DHT22;5338;51.500;6.802;2022-07-04T08:54:33;25.00;56.50
10581;DHT22;5338;51.500;6.802;2022-07-04T08:57:17;25.00;55.90
10581;DHT22;5338;51.500;6.802;2022-07-04T09:00:03;24.80;56.40
10581;DHT22;5338;51.500;6.802;2022-07-04T09:02:34;24.50;55.80
10581;DHT22;5338;51.500;6.802;2022-07-04T09:05:02;24.50;56.50
10581;DHT22;5338;51.500;6.802;2022-07-04T09:07:31;24.80;57.80
10581;DHT22;5338;51.500;6.802;2022-07-04T09:09:59;25.00;57.10
10581;DHT22;5338;51.500;6.802;2022-07-04T09:12:29;25.20;56.10
10581;DHT22;5338;51.500;6.802;2022-07-04T09:14:58;25.50;57.20
10581;DHT22;5338;51.500;6.802;2022-07-04T09:17:28;25.80;55.00
10581;DHT22;5338;51.500;6.802;2022-07-04T09:20:13;26.00;55.60
10581;DHT22;5338;51.500;6.802;2022-07-04T09:22:41;26.20;55.90
10581;DHT22;5338;51.500;6.802;2022-07-04T09:25:09;26.30;56.70
10581;DHT22;5338;51.500;6.802;2022-07-04T09:27:41;25.80;54.60
10581;DHT22;5338;51.500;6.802;2022-07-04T09:30:17;25.70;55.10
10581;DHT22;5338;51.500;6.802;2022-07-04T09:32:46;26.30;54.80
10581;DHT22;5338;51.500;6.802;2022-07-04T09:35:17;26.30;55.30
10581;DHT22;5338;51.500;6.802;2022-07-04T09:37:45;26.20;52.90
10581;DHT22;5338;51.500;6.802;2022-07-04T09:40:24;26.30;52.30
10581;DHT22;5338;51.500;6.802;2022-07-04T09:42:52;26.10;51.70
10581;DHT22;5338;51.500;6.802;2022-07-04T09:47:47;26.00;51.30
10581;DHT22;5338;51.500;6.802;2022-07-04T09:50:15;26.20;51.30
10581;DHT22;5338;51.500;6.802;2022-07-04T09:52:50;26.60;51.70
10581;DHT22;5338;51.500;6.802;2022-07-04T09:55:24;26.80;51.30
10581;DHT22;5338;51.500;6.802;2022-07-04T09:57:55;26.90;50.00
10581;DHT22;5338;51.500;6.802;2022-07-04T10:00:24;27.10;50.50
10581;DHT22;5338;51.500;6.802;2022-07-04T10:02:53;27.20;49.60
10581;DHT22;5338;51.500;6.802;2022-07-04T10:05:24;27.40;50.40
10581;DHT22;5338;51.500;6.802;2022-07-04T10:07:53;27.40;49.70
10581;DHT22;5338;51.500;6.802;2022-07-04T10:10:25;27.70;49.40
10581;DHT22;5338;51.500;6.802;2022-07-04T10:12:54;27.80;49.50
10581;DHT22;5338;51.500;6.802;2022-07-04T10:15:21;27.60;47.90
10581;DHT22;5338;51.500;6.802;2022-07-04T10:17:48;26.80;59.10
10581;DHT22;5338;51.500;6.802;2022-07-04T10:20:15;26.60;50.60
10581;DHT22;5338;51.500;6.802;2022-07-04T10:22:43;26.10;50.70
10581;DHT22;5338;51.500;6.802;2022-07-04T10:25:11;26.10;51.30
10581;DHT22;5338;51.500;6.802;2022-07-04T10:27:40;26.40;58.80
10581;DHT22;5338;51.500;6.802;2022-07-04T10:30:13;26.00;58.20
10581;DHT22;5338;51.500;6.802;2022-07-04T10:32:42;26.00;58.90
10581;DHT22;5338;51.500;6.802;2022-07-04T10:35:15;25.10;59.40
10581;DHT22;5338;51.500;6.802;2022-07-04T10:38:02;24.70;60.60
10581;DHT22;5338;51.500;6.802;2022-07-04T10:40:45;24.50;62.30
10581;DHT22;5338;51.500;6.802;2022-07-04T10:46:33;24.50;63.50
10581;DHT22;5338;51.500;6.802;2022-07-04T10:49:01;24.40;63.40
10581;DHT22;5338;51.500;6.802;2022-07-04T10:51:40;24.40;63.30
10581;DHT22;5338;51.500;6.802;2022-07-04T10:54:10;24.10;63.00
10581;DHT22;5338;51.500;6.802;2022-07-04T10:56:41;24.90;63.10
10581;DHT22;5338;51.500;6.802;2022-07-04T10:59:10;24.70;53.90
10581;DHT22;5338;51.500;6.802;2022-07-04T11:01:44;24.70;52.10
10581;DHT22;5338;51.500;6.802;2022-07-04T11:04:11;24.30;61.00
10581;DHT22;5338;51.500;6.802;2022-07-04T11:06:50;24.60;61.90
10581;DHT22;5338;51.500;6.802;2022-07-04T11:09:21;24.20;62.10
10581;DHT22;5338;51.500;6.802;2022-07-04T11:11:50;24.10;53.00
10581;DHT22;5338;51.500;6.802;2022-07-04T11:14:39;24.90;54.80
10581;DHT22;5338;51.500;6.802;2022-07-04T11:17:10;25.10;60.20
10581;DHT22;5338;51.500;6.802;2022-07-04T11:19:38;25.40;62.10
10581;DHT22;5338;51.500;6.802;2022-07-04T11:22:09;24.90;61.90
10581;DHT22;5338;51.500;6.802;2022-07-04T11:24:37;25.00;53.40
10581;DHT22;5338;51.500;6.802;2022-07-04T11:27:07;25.40;52.80
10581;DHT22;5338;51.500;6.802;2022-07-04T11:29:35;25.10;62.40
10581;DHT22;5338;51.500;6.802;2022-07-04T11:32:02;24.80;62.80
10581;DHT22;5338;51.500;6.802;2022-07-04T11:34:34;24.10;63.40
10581;DHT22;5338;51.500;6.802;2022-07-04T11:37:02;24.20;64.30
10581;DHT22;5338;51.500;6.802;2022-07-04T11:39:29;23.80;65.60
10581;DHT22;5338;51.500;6.802;2022-07-04T11:41:57;23.70;65.10
10581;DHT22;5338;51.500;6.802;2022-07-04T11:44:42;24.10;66.60
10581;DHT22;5338;51.500;6.802;2022-07-04T11:47:33;23.60;65.90
10581;DHT22;5338;51.500;6.802;2022-07-04T11:50:04;23.90;65.40
10581;DHT22;5338;51.500;6.802;2022-07-04T11:52:40;23.20;66.80
10581;DHT22;5338;51.500;6.802;2022-07-04T11:55:11;23.50;57.10
10581;DHT22;5338;51.500;6.802;2022-07-04T11:57:40;23.50;57.00
10581;DHT22;5338;51.500;6.802;2022-07-04T12:00:11;25.10;66.20
10581;DHT22;5338;51.500;6.802;2022-07-04T12:02:39;25.10;62.30
10581;DHT22;5338;51.500;6.802;2022-07-04T12:05:09;24.60;61.90
10581;DHT22;5338;51.500;6.802;2022-07-04T12:07:38;24.70;61.20
10581;DHT22;5338;51.500;6.802;2022-07-04T12:10:09;23.80;60.00
10581;DHT22;5338;51.500;6.802;2022-07-04T12:12:50;23.90;51.40
10581;DHT22;5338;51.500;6.802;2022-07-04T12:15:18;24.50;61.50
10581;DHT22;5338;51.500;6.802;2022-07-04T12:17:50;25.10;59.90
10581;DHT22;5338;51.500;6.802;2022-07-04T12:20:18;24.80;60.00
10581;DHT22;5338;51.500;6.802;2022-07-04T12:22:52;25.10;52.00
10581;DHT22;5338;51.500;6.802;2022-07-04T12:25:23;25.20;52.00
10581;DHT22;5338;51.500;6.802;2022-07-04T12:28:06;25.20;59.10
10581;DHT22;5338;51.500;6.802;2022-07-04T12:30:35;25.00;50.20
10581;DHT22;5338;51.500;6.802;2022-07-04T12:33:04;24.90;60.50
10581;DHT22;5338;51.500;6.802;2022-07-04T12:35:38;26.10;61.30
10581;DHT22;5338;51.500;6.802;2022-07-04T12:38:07;26.00;59.40
10581;DHT22;5338;51.500;6.802;2022-07-04T12:40:35;25.90;58.20
10581;DHT22;5338;51.500;6.802;2022-07-04T12:43:03;26.00;60.30
10581;DHT22;5338;51.500;6.802;2022-07-04T12:45:46;25.70;60.40
10581;DHT22;5338;51.500;6.802;2022-07-04T12:48:15;25.80;52.20
10581;DHT22;5338;51.500;6.802;2022-07-04T12:50:45;25.40;59.20
10581;DHT22;5338;51.500;6.802;2022-07-04T12:53:12;24.90;59.60
10581;DHT22;5338;51.500;6.802;2022-07-04T12:55:41;24.40;60.30
10581;DHT22;5338;51.500;6.802;2022-07-04T12:58:09;24.90;61.90
10581;DHT22;5338;51.500;6.802;2022-07-04T13:00:36;24.50;62.20
10581;DHT22;5338;51.500;6.802;2022-07-04T13:03:04;24.50;53.40
10581;DHT22;5338;51.500;6.802;2022-07-04T13:05:30;24.50;63.40
10581;DHT22;5338;51.500;6.802;2022-07-04T13:08:02;24.60;54.00
10581;DHT22;5338;51.500;6.802;2022-07-04T13:10:29;25.90;61.00
10581;DHT22;5338;51.500;6.802;2022-07-04T13:12:57;25.60;52.10
10581;DHT22;5338;51.500;6.802;2022-07-04T13:15:24;25.40;52.90
10581;DHT22;5338;51.500;6.802;2022-07-04T13:17:51;25.30;50.00
10581;DHT22;5338;51.500;6.802;2022-07-04T13:20:19;25.70;59.70
10581;DHT22;5338;51.500;6.802;2022-07-04T13:22:46;25.00;57.10
10581;DHT22;5338;51.500;6.802;2022-07-04T13:25:22;25.10;48.70
10581;DHT22;5338;51.500;6.802;2022-07-04T13:27:57;25.00;49.50
10581;DHT22;5338;51.500;6.802;2022-07-04T13:30:24;26.20;58.00
10581;DHT22;5338;51.500;6.802;2022-07-04T13:32:51;26.00;49.30
10581;DHT22;5338;51.500;6.802;2022-07-04T13:35:19;25.70;55.50
10581;DHT22;5338;51.500;6.802;2022-07-04T13:37:46;25.50;56.50
10581;DHT22;5338;51.500;6.802;2022-07-04T13:40:14;25.70;56.20
10581;DHT22;5338;51.500;6.802;2022-07-04T13:42:41;25.90;56.50
10581;DHT22;5338;51.500;6.802;2022-07-04T13:45:26;25.50;56.40
10581;DHT22;5338;51.500;6.802;2022-07-04T13:47:53;25.50;47.80
10581;DHT22;5338;51.500;6.802;2022-07-04T13:50:21;25.80;58.40
10581;DHT22;5338;51.500;6.802;2022-07-04T13:52:48;26.50;57.70
10581;DHT22;5338;51.500;6.802;2022-07-04T13:55:16;26.30;48.60
10581;DHT22;5338;51.500;6.802;2022-07-04T13:57:43;26.00;56.20
10581;DHT22;5338;51.500;6.802;2022-07-04T14:00:12;25.90;57.40
10581;DHT22;5338;51.500;6.802;2022-07-04T14:02:39;25.50;57.00
10581;DHT22;5338;51.500;6.802;2022-07-04T14:05:07;26.20;58.50
10581;DHT22;5338;51.500;6.802;2022-07-04T14:07:34;26.20;56.60
10581;DHT22;5338;51.500;6.802;2022-07-04T14:10:01;25.70;57.70
10581;DHT22;5338;51.500;6.802;2022-07-04T14:12:29;25.60;48.90
10581;DHT22;5338;51.500;6.802;2022-07-04T14:14:56;25.90;58.30
10581;DHT22;5338;51.500;6.802;2022-07-04T14:17:22;25.70;57.40
10581;DHT22;5338;51.500;6.802;2022-07-04T14:19:49;25.00;58.00
10581;DHT22;5338;51.500;6.802;2022-07-04T14:24:43;25.70;59.00
10581;DHT22;5338;51.500;6.802;2022-07-04T14:27:10;25.60;57.80
10581;DHT22;5338;51.500;6.802;2022-07-04T14:29:39;25.10;57.80
10581;DHT22;5338;51.500;6.802;2022-07-04T14:32:07;25.30;49.70
10581;DHT22;5338;51.500;6.802;2022-07-04T14:34:34;26.00;59.80
10581;DHT22;5338;51.500;6.802;2022-07-04T14:37:01;25.70;51.20
10581;DHT22;5338;51.500;6.802;2022-07-04T14:39:28;26.10;59.70
10581;DHT22;5338;51.500;6.802;2022-07-04T14:41:54;25.80;51.10
10581;DHT22;5338;51.500;6.802;2022-07-04T14:44:21;26.70;58.90
10581;DHT22;5338;51.500;6.802;2022-07-04T14:46:49;26.00;58.60
10581;DHT22;5338;51.500;6.802;2022-07-04T14:49:18;26.30;59.10
10581;DHT22;5338;51.500;6.802;2022-07-04T14:51:45;25.80;58.40
10581;DHT22;5338;51.500;6.802;2022-07-04T14:54:12;26.20;60.00
10581;DHT22;5338;51.500;6.802;2022-07-04T14:56:44;26.40;59.90
10581;DHT22;5338;51.500;6.802;2022-07-04T14:59:11;25.70;59.30
10581;DHT22;5338;51.500;6.802;2022-07-04T15:01:47;27.40;61.20
10581;DHT22;5338;51.500;6.802;2022-07-04T15:04:16;25.70;60.00
10581;DHT22;5338;51.500;6.802;2022-07-04T15:06:43;25.60;51.60
10581;DHT22;5338;51.500;6.802;2022-07-04T15:09:11;25.50;60.90
10581;DHT22;5338;51.500;6.802;2022-07-04T15:11:37;24.70;61.40
10581;DHT22;5338;51.500;6.802;2022-07-04T15:14:04;25.00;53.00
10581;DHT22;5338;51.500;6.802;2022-07-04T15:16:31;25.00;53.20
10581;DHT22;5338;51.500;6.802;2022-07-04T15:18:58;25.20;62.80
10581;DHT22;5338;51.500;6.802;2022-07-04T15:21:26;25.40;53.70
10581;DHT22;5338;51.500;6.802;2022-07-04T15:24:11;25.80;60.50
10581;DHT22;5338;51.500;6.802;2022-07-04T15:26:40;25.80;61.40
10581;DHT22;5338;51.500;6.802;2022-07-04T15:29:07;26.00;62.20
10581;DHT22;5338;51.500;6.802;2022-07-04T15:31:34;25.80;61.60
10581;DHT22;5338;51.500;6.802;2022-07-04T15:34:01;25.90;59.70
10581;DHT22;5338;51.500;6.802;2022-07-04T15:36:29;25.50;58.50
10581;DHT22;5338;51.500;6.802;2022-07-04T15:41:23;25.90;58.90
10581;DHT22;5338;51.500;6.802;2022-07-04T15:43:50;25.90;50.40
10581;DHT22;5338;51.500;6.802;2022-07-04T15:46:17;26.00;51.20
10581;DHT22;5338;51.500;6.802;2022-07-04T15:48:44;26.60;60.50
10581;DHT22;5338;51.500;6.802;2022-07-04T15:51:11;26.60;59.10
10581;DHT22;5338;51.500;6.802;2022-07-04T15:53:39;26.00;59.50
10581;DHT22;5338;51.500;6.802;2022-07-04T15:56:06;26.20;60.00
10581;DHT22;5338;51.500;6.802;2022-07-04T15:58:35;25.40;59.20
10581;DHT22;5338;51.500;6.802;2022-07-04T16:01:02;25.80;60.20
10581;DHT22;5338;51.500;6.802;2022-07-04T16:03:32;25.50;51.50
10581;DHT22;5338;51.500;6.802;2022-07-04T16:06:01;25.20;62.20
10581;DHT22;5338;51.500;6.802;2022-07-04T16:08:28;24.40;63.40
10581;DHT22;5338;51.500;6.802;2022-07-04T16:10:56;24.50;64.60
10581;DHT22;5338;51.500;6.802;2022-07-04T16:15:53;24.50;65.30
10581;DHT22;5338;51.500;6.802;2022-07-04T16:18:20;24.20;65.10
10581;DHT22;5338;51.500;6.802;2022-07-04T16:20:47;24.20;65.30
10581;DHT22;5338;51.500;6.802;2022-07-04T16:23:14;24.80;65.50